createdAt,value
2018-07-25T00:01:48.190Z,35.64
2018-07-25T00:04:17.645Z,35.31
2018-07-25T00:06:46.897Z,35.13
2018-07-25T00:09:16.157Z,35.59
2018-07-25T00:11:45.469Z,35.92
2018-07-25T00:14:14.845Z,35.91
2018-07-25T00:16:44.155Z,36.83
2018-07-25T00:19:13.539Z,37.31
2018-07-25T00:21:42.983Z,36.94
2018-07-25T00:24:12.314Z,37.89
2018-07-25T00:26:41.666Z,37.80
2018-07-25T00:29:10.905Z,37.53
2018-07-25T00:31:40.155Z,37.61
2018-07-25T00:34:09.422Z,37.70
2018-07-25T00:36:38.855Z,37.66
2018-07-25T00:39:09.005Z,37.06
2018-07-25T00:41:38.437Z,37.72
2018-07-25T00:44:07.660Z,38.10
2018-07-25T00:46:36.981Z,39.11
2018-07-25T00:49:06.229Z,39.40
2018-07-25T00:51:35.470Z,40.46
2018-07-25T00:54:04.884Z,40.86
2018-07-25T00:56:34.078Z,41.25
2018-07-25T00:59:03.321Z,42.71
2018-07-25T01:01:32.700Z,42.45
2018-07-25T01:04:01.985Z,42.10
2018-07-25T01:06:31.287Z,41.04
2018-07-25T01:09:00.789Z,41.47
2018-07-25T01:11:30.181Z,41.61
2018-07-25T01:13:59.572Z,41.86
2018-07-25T01:16:28.916Z,41.78
2018-07-25T01:18:58.146Z,41.67
2018-07-25T01:21:27.385Z,41.09
2018-07-25T01:23:56.725Z,41.03
2018-07-25T01:26:26.094Z,40.55
2018-07-25T01:28:55.380Z,41.93
2018-07-25T01:31:24.698Z,41.54
2018-07-25T01:33:54.002Z,41.12
2018-07-25T01:36:23.316Z,40.44
2018-07-25T01:38:52.653Z,41.28
2018-07-25T01:41:22.008Z,40.82
2018-07-25T01:43:51.262Z,40.53
2018-07-25T01:46:20.596Z,40.09
2018-07-25T01:48:49.851Z,39.72
2018-07-25T01:51:19.109Z,39.39
2018-07-25T01:53:48.410Z,39.13
2018-07-25T01:56:17.822Z,39.25
2018-07-25T01:58:47.177Z,38.94
2018-07-25T02:01:16.436Z,39.24
2018-07-25T02:03:45.800Z,39.92
2018-07-25T02:06:15.205Z,39.80
2018-07-25T02:08:44.496Z,40.19
2018-07-25T02:11:13.697Z,39.88
2018-07-25T02:13:42.977Z,40.34
2018-07-25T02:16:12.327Z,40.34
2018-07-25T02:18:42.001Z,40.72
2018-07-25T02:21:11.461Z,41.28
2018-07-25T02:23:40.953Z,41.57
2018-07-25T02:26:10.262Z,42.15
2018-07-25T02:28:39.501Z,41.85
2018-07-25T02:31:09.552Z,41.62
2018-07-25T02:33:43.975Z,42.73
2018-07-25T02:36:13.267Z,43.70
2018-07-25T02:38:42.639Z,44.35
2018-07-25T02:41:11.900Z,44.02
2018-07-25T02:43:41.310Z,43.83
2018-07-25T02:46:10.587Z,43.38
2018-07-25T02:48:39.842Z,44.04
2018-07-25T02:51:09.106Z,43.41
2018-07-25T02:53:38.350Z,44.09
2018-07-25T02:56:07.590Z,44.24
2018-07-25T02:58:36.834Z,43.94
2018-07-25T03:01:06.092Z,43.17
2018-07-25T03:03:35.478Z,43.11
2018-07-25T03:06:04.781Z,42.98
2018-07-25T03:08:34.158Z,44.21
2018-07-25T03:11:03.443Z,44.63
2018-07-25T03:13:32.619Z,44.56
2018-07-25T03:16:04.849Z,44.55
2018-07-25T03:18:34.126Z,44.97
2018-07-25T03:21:03.449Z,45.21
2018-07-25T03:23:34.013Z,44.60
2018-07-25T03:26:03.284Z,44.91
2018-07-25T03:28:32.774Z,46.20
2018-07-25T03:31:02.405Z,46.50
2018-07-25T03:33:31.657Z,46.26
2018-07-25T03:36:01.155Z,46.40
2018-07-25T03:38:30.908Z,46.98
2018-07-25T03:41:00.215Z,45.89
2018-07-25T03:43:29.477Z,45.77
2018-07-25T03:45:58.608Z,44.96
2018-07-25T03:48:27.890Z,45.41
2018-07-25T03:50:57.125Z,45.28
2018-07-25T03:53:26.440Z,45.71
2018-07-25T03:55:55.808Z,46.39
2018-07-25T03:58:25.181Z,46.68
2018-07-25T04:00:54.517Z,47.07
2018-07-25T04:03:23.711Z,47.43
2018-07-25T04:05:53.073Z,48.83
2018-07-25T04:08:22.375Z,48.26
2018-07-25T04:10:51.610Z,48.26
2018-07-25T04:13:21.223Z,47.85
2018-07-25T04:15:50.479Z,48.23
2018-07-25T04:18:19.929Z,48.04
2018-07-25T04:20:49.322Z,48.89
2018-07-25T04:23:18.621Z,48.45
2018-07-25T04:25:48.009Z,48.85
2018-07-25T04:28:17.229Z,49.34
2018-07-25T04:30:46.502Z,49.20
2018-07-25T04:33:15.741Z,49.36
2018-07-25T04:35:45.122Z,48.86
2018-07-25T04:38:14.532Z,48.50
2018-07-25T04:40:43.934Z,49.04
2018-07-25T04:43:13.329Z,50.00
2018-07-25T04:45:42.716Z,49.44
2018-07-25T04:48:12.053Z,48.33
2018-07-25T04:50:41.406Z,48.45
2018-07-25T04:53:10.843Z,49.46
2018-07-25T04:55:40.182Z,48.61
2018-07-25T04:58:09.589Z,49.10
2018-07-25T05:00:38.801Z,48.34
2018-07-25T05:03:08.054Z,47.93
2018-07-25T05:05:37.297Z,48.06
2018-07-25T05:08:06.596Z,47.66
2018-07-25T05:10:35.899Z,48.12
2018-07-25T05:13:05.265Z,47.03
2018-07-25T05:15:34.554Z,46.13
2018-07-25T05:18:04.075Z,45.28
2018-07-25T05:20:33.421Z,44.80
2018-07-25T05:23:02.671Z,45.44
2018-07-25T05:25:32.041Z,45.05
2018-07-25T05:28:01.356Z,45.04
2018-07-25T05:30:30.666Z,44.56
2018-07-25T05:32:59.992Z,44.32
2018-07-25T05:35:29.241Z,44.41
2018-07-25T05:37:58.483Z,43.30
2018-07-25T05:40:27.708Z,41.78
2018-07-25T05:42:56.968Z,40.98
2018-07-25T05:45:26.263Z,40.60
2018-07-25T05:47:55.555Z,40.07
2018-07-25T05:50:24.763Z,40.17
2018-07-25T05:52:54.069Z,39.84
2018-07-25T05:55:23.313Z,40.21
2018-07-25T05:57:52.658Z,39.89
2018-07-25T06:00:21.933Z,39.52
2018-07-25T06:02:51.245Z,38.58
2018-07-25T06:05:20.625Z,39.11
2018-07-25T06:07:50.072Z,38.52
2018-07-25T06:10:19.372Z,37.57
2018-07-25T06:12:48.793Z,36.87
2018-07-25T06:15:18.065Z,36.16
2018-07-25T06:17:47.785Z,36.40
2018-07-25T06:20:17.045Z,36.57
2018-07-25T06:22:46.401Z,34.68
2018-07-25T06:25:15.649Z,33.94
2018-07-25T06:27:45.207Z,34.36
2018-07-25T06:30:14.470Z,32.24
2018-07-25T06:32:43.914Z,32.47
2018-07-25T06:35:13.272Z,30.06
2018-07-25T06:37:42.627Z,27.10
2018-07-25T06:40:12.096Z,24.49
2018-07-25T06:42:41.409Z,24.20
2018-07-25T06:45:10.695Z,24.72
2018-07-25T06:47:39.909Z,25.30
2018-07-25T06:50:09.537Z,26.86
2018-07-25T06:52:38.944Z,26.82
2018-07-25T06:55:08.321Z,28.27
2018-07-25T06:57:37.529Z,28.26
2018-07-25T07:00:06.812Z,28.20
2018-07-25T07:02:36.116Z,29.30
2018-07-25T07:05:05.385Z,29.46
2018-07-25T07:07:34.632Z,29.10
2018-07-25T07:10:03.904Z,28.32
2018-07-25T07:12:33.218Z,27.45
2018-07-25T07:15:02.517Z,27.54
2018-07-25T07:17:31.884Z,26.34
2018-07-25T07:20:01.105Z,23.76
2018-07-25T07:22:32.290Z,24.00
2018-07-25T07:25:01.795Z,23.85
2018-07-25T07:27:31.293Z,23.42
2018-07-25T07:30:00.545Z,23.96
2018-07-25T07:32:30.149Z,21.55
2018-07-25T07:34:59.390Z,19.16
2018-07-25T07:37:28.806Z,18.19
2018-07-25T07:39:58.052Z,16.06
2018-07-25T07:42:27.453Z,14.95
2018-07-25T07:44:56.905Z,13.39
2018-07-25T07:47:26.085Z,12.90
2018-07-25T07:49:55.381Z,12.08
2018-07-25T07:52:24.554Z,11.56
2018-07-25T07:54:53.889Z,11.59
2018-07-25T07:57:23.733Z,12.13
2018-07-25T07:59:53.023Z,11.08
2018-07-25T08:02:22.242Z,9.58
2018-07-25T08:04:51.819Z,9.86
2018-07-25T08:07:21.099Z,9.77
2018-07-25T08:09:50.525Z,9.43
2018-07-25T08:12:19.802Z,8.88
2018-07-25T08:14:49.104Z,9.33
2018-07-25T08:17:18.363Z,9.59
2018-07-25T08:19:47.675Z,10.43
2018-07-25T08:22:16.993Z,10.29
2018-07-25T08:24:46.263Z,9.17
2018-07-25T08:27:15.514Z,9.33
2018-07-25T08:29:44.913Z,10.75
2018-07-25T08:32:16.012Z,9.58
2018-07-25T08:34:45.292Z,9.55
2018-07-25T08:37:14.636Z,9.76
2018-07-25T08:39:44.240Z,9.84
2018-07-25T08:42:13.623Z,9.64
2018-07-25T08:44:42.986Z,10.54
2018-07-25T08:47:12.372Z,12.14
2018-07-25T08:49:41.708Z,11.43
2018-07-25T08:52:11.010Z,10.84
2018-07-25T08:54:40.399Z,11.01
2018-07-25T08:57:09.790Z,11.67
2018-07-25T08:59:39.374Z,10.31
2018-07-25T09:02:08.655Z,9.94
2018-07-25T09:04:38.018Z,9.34
2018-07-25T09:07:07.304Z,9.47
2018-07-25T09:09:36.519Z,9.79
2018-07-25T09:12:05.874Z,10.39
2018-07-25T09:14:35.024Z,10.60
2018-07-25T09:17:04.346Z,10.75
2018-07-25T09:19:33.856Z,9.88
2018-07-25T09:22:03.049Z,10.08
2018-07-25T09:24:32.631Z,8.99
2018-07-25T09:27:01.907Z,9.12
2018-07-25T09:29:31.318Z,10.83
2018-07-25T09:32:00.473Z,14.05
2018-07-25T09:34:32.071Z,16.05
2018-07-25T09:37:02.098Z,16.70
2018-07-25T09:39:31.786Z,17.53
2018-07-25T09:42:01.926Z,17.86
2018-07-25T09:44:31.536Z,18.61
2018-07-25T09:47:00.896Z,19.16
2018-07-25T09:49:30.232Z,18.37
2018-07-25T09:52:00.110Z,18.06
2018-07-25T09:54:29.587Z,18.53
2018-07-25T09:56:59.006Z,18.46
2018-07-25T09:59:28.489Z,18.68
2018-07-25T10:01:57.685Z,18.80
2018-07-25T10:04:27.321Z,18.53
2018-07-25T10:06:56.664Z,18.82
2018-07-25T10:09:26.338Z,18.64
2018-07-25T10:11:55.656Z,18.97
2018-07-25T10:14:24.995Z,18.77
2018-07-25T10:16:54.476Z,19.38
2018-07-25T10:19:23.866Z,18.68
2018-07-25T10:21:53.031Z,19.08
2018-07-25T10:24:22.686Z,19.49
2018-07-25T10:26:52.241Z,18.86
2018-07-25T10:29:21.960Z,17.65
2018-07-25T10:31:51.266Z,18.10
2018-07-25T10:34:21.217Z,16.92
2018-07-25T10:36:50.521Z,16.38
2018-07-25T10:39:19.920Z,16.14
2018-07-25T10:41:49.316Z,15.88
2018-07-25T10:44:18.654Z,16.24
2018-07-25T10:46:48.636Z,16.23
2018-07-25T10:49:17.938Z,15.85
2018-07-25T10:51:47.415Z,16.20
2018-07-25T10:54:16.862Z,16.06
2018-07-25T10:56:46.261Z,15.72
2018-07-25T10:59:15.600Z,14.57
2018-07-25T11:01:44.912Z,15.91
2018-07-25T11:04:14.403Z,14.92
2018-07-25T11:06:43.730Z,14.94
2018-07-25T11:09:13.161Z,14.34
2018-07-25T11:11:42.536Z,15.52
2018-07-25T11:14:11.767Z,15.95
2018-07-25T11:16:41.085Z,15.65
2018-07-25T11:19:10.378Z,15.58
2018-07-25T11:21:39.852Z,15.45
2018-07-25T11:24:09.252Z,15.48
2018-07-25T11:26:38.521Z,14.50
2018-07-25T11:29:07.762Z,14.83
2018-07-25T11:31:37.494Z,14.33
2018-07-25T11:34:06.850Z,14.98
2018-07-25T11:36:36.198Z,14.41
2018-07-25T11:39:08.629Z,14.93
2018-07-25T11:41:38.357Z,14.46
2018-07-25T11:44:07.838Z,15.17
2018-07-25T11:46:37.048Z,14.13
2018-07-25T11:49:06.641Z,14.66
2018-07-25T11:51:35.978Z,13.86
2018-07-25T11:54:05.742Z,12.97
2018-07-25T11:56:35.115Z,13.13
2018-07-25T11:59:04.553Z,12.70
2018-07-25T12:01:34.075Z,12.50
2018-07-25T12:04:03.374Z,12.80
2018-07-25T12:06:32.686Z,12.81
2018-07-25T12:09:02.081Z,13.22
2018-07-25T12:11:31.934Z,12.94
2018-07-25T12:14:01.394Z,12.62
2018-07-25T12:16:30.727Z,12.21
2018-07-25T12:19:00.501Z,12.25
2018-07-25T12:21:29.818Z,11.75
2018-07-25T12:23:59.329Z,11.58
2018-07-25T12:26:28.768Z,12.62
2018-07-25T12:28:58.012Z,11.91
2018-07-25T12:31:27.265Z,11.32
2018-07-25T12:33:56.676Z,12.39
2018-07-25T12:36:26.174Z,11.78
2018-07-25T12:38:55.322Z,12.06
2018-07-25T12:41:24.678Z,11.30
2018-07-25T12:43:53.959Z,11.48
2018-07-25T12:46:23.309Z,11.00
2018-07-25T12:48:52.515Z,10.87
2018-07-25T12:51:22.059Z,10.64
2018-07-25T12:53:51.573Z,11.15
2018-07-25T12:56:20.755Z,10.57
2018-07-25T12:58:50.160Z,10.38
2018-07-25T13:01:19.501Z,11.40
2018-07-25T13:03:48.720Z,11.12
2018-07-25T13:06:18.083Z,11.78
2018-07-25T13:08:47.312Z,11.55
2018-07-25T13:11:16.577Z,12.71
2018-07-25T13:13:46.026Z,12.24
2018-07-25T13:16:15.267Z,12.72
2018-07-25T13:18:44.715Z,13.85
2018-07-25T13:21:14.105Z,13.29
2018-07-25T13:23:44.152Z,12.78
2018-07-25T13:26:13.601Z,13.04
2018-07-25T13:28:42.887Z,12.69
2018-07-25T13:31:12.311Z,12.55
2018-07-25T13:33:41.675Z,12.17
2018-07-25T13:36:11.238Z,12.40
2018-07-25T13:38:40.473Z,11.47
2018-07-25T13:41:09.801Z,12.76
2018-07-25T13:43:39.094Z,12.25
2018-07-25T13:46:08.609Z,12.15
2018-07-25T13:48:37.820Z,12.07
2018-07-25T13:51:07.223Z,12.28
2018-07-25T13:53:36.622Z,13.08
2018-07-25T13:56:06.056Z,13.58
2018-07-25T13:58:35.414Z,12.94
2018-07-25T14:01:04.762Z,12.79
2018-07-25T14:03:34.289Z,13.09
2018-07-25T14:06:03.701Z,12.92
2018-07-25T14:08:33.099Z,12.14
2018-07-25T14:11:02.661Z,12.71
2018-07-25T14:13:31.961Z,13.66
2018-07-25T14:16:01.251Z,12.18
2018-07-25T14:18:30.750Z,11.58
2018-07-25T14:21:00.168Z,11.85
2018-07-25T14:23:29.512Z,12.04
2018-07-25T14:25:58.971Z,12.09
2018-07-25T14:28:28.304Z,12.31
2018-07-25T14:30:57.763Z,12.26
2018-07-25T14:33:27.150Z,12.28
2018-07-25T14:35:56.473Z,12.15
2018-07-25T14:38:25.775Z,11.71
2018-07-25T14:40:55.162Z,11.66
2018-07-25T14:43:24.723Z,12.32
2018-07-25T14:45:54.193Z,11.95
2018-07-25T14:48:23.790Z,12.06
2018-07-25T14:50:53.046Z,11.75
2018-07-25T14:53:22.297Z,11.42
2018-07-25T14:55:51.659Z,11.38
2018-07-25T14:58:20.948Z,11.12
2018-07-25T15:00:50.443Z,10.81
2018-07-25T15:03:19.927Z,10.32
2018-07-25T15:05:49.285Z,10.25
2018-07-25T15:08:18.602Z,10.34
2018-07-25T15:10:47.924Z,9.86
2018-07-25T15:13:17.330Z,9.86
2018-07-25T15:15:46.629Z,9.67
2018-07-25T15:18:15.817Z,9.53
2018-07-25T15:20:45.181Z,9.44
2018-07-25T15:23:19.794Z,9.99
2018-07-25T15:25:49.038Z,10.48
2018-07-25T15:28:18.465Z,10.19
2018-07-25T15:30:47.842Z,9.44
2018-07-25T15:33:17.033Z,9.70
2018-07-25T15:35:46.558Z,9.77
2018-07-25T15:38:15.887Z,10.40
2018-07-25T15:40:45.015Z,11.14
2018-07-25T15:43:14.293Z,10.56
2018-07-25T15:45:43.855Z,9.68
2018-07-25T15:48:13.170Z,10.01
2018-07-25T15:50:42.514Z,10.41
2018-07-25T15:53:11.973Z,10.33
2018-07-25T15:55:41.364Z,10.86
2018-07-25T15:58:10.661Z,10.47
2018-07-25T16:00:39.834Z,10.11
2018-07-25T16:03:09.312Z,10.00
2018-07-25T16:05:38.572Z,10.52
2018-07-25T16:08:07.961Z,11.30
2018-07-25T16:10:37.445Z,11.13
2018-07-25T16:13:07.186Z,11.25
2018-07-25T16:15:36.647Z,10.46
2018-07-25T16:18:06.059Z,10.13
2018-07-25T16:20:36.190Z,9.86
2018-07-25T16:23:05.613Z,10.10
2018-07-25T16:25:35.015Z,10.06
2018-07-25T16:28:04.592Z,10.07
2018-07-25T16:30:34.215Z,10.00
2018-07-25T16:33:03.646Z,9.51
2018-07-25T16:35:33.020Z,10.02
2018-07-25T16:38:02.417Z,10.15
2018-07-25T16:40:31.832Z,9.59
2018-07-25T16:43:01.425Z,10.11
2018-07-25T16:45:30.927Z,10.50
2018-07-25T16:48:00.262Z,11.24
2018-07-25T16:50:29.538Z,11.36
2018-07-25T16:52:58.886Z,10.99
2018-07-25T16:55:28.230Z,10.62
2018-07-25T16:57:57.588Z,10.78
2018-07-25T17:00:27.055Z,11.02
2018-07-25T17:02:56.659Z,11.08
2018-07-25T17:05:25.961Z,10.97
2018-07-25T17:07:55.265Z,10.95
2018-07-25T17:10:24.580Z,11.38
2018-07-25T17:12:54.116Z,11.96
2018-07-25T17:15:23.389Z,11.81
2018-07-25T17:17:52.861Z,11.67
2018-07-25T17:20:22.244Z,13.08
2018-07-25T17:22:51.718Z,11.72
2018-07-25T17:25:20.949Z,12.64
2018-07-25T17:27:51.018Z,16.56
2018-07-25T17:30:20.373Z,18.97
2018-07-25T17:32:49.722Z,20.05
2018-07-25T17:35:19.001Z,20.15
2018-07-25T17:37:48.442Z,19.99
2018-07-25T17:40:17.678Z,19.53
2018-07-25T17:42:47.041Z,19.04
2018-07-25T17:45:16.369Z,19.36
2018-07-25T17:47:45.647Z,18.32
2018-07-25T17:50:14.900Z,18.40
2018-07-25T17:52:44.335Z,18.30
2018-07-25T17:55:13.617Z,19.19
2018-07-25T17:57:42.944Z,18.90
2018-07-25T18:00:12.872Z,19.58
2018-07-25T18:02:42.196Z,19.79
2018-07-25T18:05:11.932Z,19.63
2018-07-25T18:07:41.275Z,19.57
2018-07-25T18:10:10.601Z,18.88
2018-07-25T18:12:40.081Z,18.26
2018-07-25T18:15:10.121Z,17.99
2018-07-25T18:17:39.583Z,17.60
2018-07-25T18:20:08.959Z,17.22
2018-07-25T18:22:38.395Z,17.63
2018-07-25T18:25:07.803Z,17.23
2018-07-25T18:27:37.213Z,16.94
2018-07-25T18:30:08.071Z,17.38
2018-07-25T18:32:38.012Z,18.09
2018-07-25T18:35:07.765Z,18.28
2018-07-25T18:37:37.850Z,18.25
2018-07-25T18:40:07.599Z,18.13
2018-07-25T18:42:37.559Z,18.46
2018-07-25T18:45:06.881Z,18.95
2018-07-25T18:47:36.265Z,18.79
2018-07-25T18:50:06.264Z,18.64
2018-07-25T18:52:35.883Z,18.95
2018-07-25T18:55:05.189Z,19.03
2018-07-25T18:57:34.561Z,20.96
2018-07-25T19:00:03.903Z,21.17
2018-07-25T19:02:33.247Z,19.95
2018-07-25T19:05:02.543Z,20.39
2018-07-25T19:07:31.939Z,21.80
2018-07-25T19:10:01.253Z,23.32
2018-07-25T19:12:30.600Z,24.88
2018-07-25T19:15:04.882Z,24.61
2018-07-25T19:17:34.304Z,24.48
2018-07-25T19:20:03.621Z,24.21
2018-07-25T19:22:33.149Z,23.70
2018-07-25T19:25:02.421Z,24.35
2018-07-25T19:27:31.729Z,24.16
2018-07-25T19:30:01.115Z,24.06
2018-07-25T19:32:30.381Z,24.10
2018-07-25T19:34:59.672Z,25.45
2018-07-25T19:37:29.293Z,24.96
2018-07-25T19:39:58.714Z,24.04
2018-07-25T19:42:28.311Z,24.54
2018-07-25T19:44:57.752Z,24.58
2018-07-25T19:47:26.991Z,24.23
2018-07-25T19:49:56.414Z,24.80
2018-07-25T19:52:25.649Z,24.12
2018-07-25T19:54:55.329Z,25.02
2018-07-25T19:57:24.593Z,24.83
2018-07-25T19:59:53.903Z,24.78
2018-07-25T20:02:23.097Z,24.01
2018-07-25T20:04:52.442Z,23.21
2018-07-25T20:07:21.727Z,23.86
2018-07-25T20:09:51.033Z,22.93
2018-07-25T20:12:20.281Z,23.21
2018-07-25T20:14:54.694Z,22.85
2018-07-25T20:17:24.028Z,22.31
2018-07-25T20:19:53.517Z,22.83
2018-07-25T20:22:22.901Z,22.82
2018-07-25T20:24:52.145Z,23.32
2018-07-25T20:27:21.521Z,23.03
2018-07-25T20:29:50.964Z,23.33
2018-07-25T20:32:20.250Z,22.73
2018-07-25T20:34:49.657Z,23.08
2018-07-25T20:37:19.034Z,23.09
2018-07-25T20:39:48.496Z,24.18
2018-07-25T20:42:17.897Z,24.24
2018-07-25T20:44:48.103Z,23.22
2018-07-25T20:47:17.387Z,23.57
2018-07-25T20:49:46.649Z,22.50
2018-07-25T20:52:15.849Z,23.47
2018-07-25T20:54:45.299Z,24.25
2018-07-25T20:57:14.733Z,24.88
2018-07-25T20:59:44.322Z,24.24
2018-07-25T21:02:13.851Z,25.36
2018-07-25T21:04:43.487Z,24.88
2018-07-25T21:07:13.693Z,24.54
2018-07-25T21:09:43.250Z,24.92
2018-07-25T21:12:12.390Z,24.62
2018-07-25T21:14:41.765Z,24.52
2018-07-25T21:17:11.003Z,24.55
2018-07-25T21:19:40.381Z,24.68
2018-07-25T21:22:09.701Z,24.47
2018-07-25T21:24:39.049Z,25.21
2018-07-25T21:27:08.549Z,25.12
2018-07-25T21:29:38.310Z,25.31
2018-07-25T21:32:07.540Z,24.49
2018-07-25T21:34:36.989Z,25.25
2018-07-25T21:37:06.422Z,25.74
2018-07-25T21:39:35.798Z,26.18
2018-07-25T21:42:05.050Z,25.70
2018-07-25T21:44:34.469Z,25.90
2018-07-25T21:47:03.721Z,25.70
2018-07-25T21:49:32.961Z,25.96
2018-07-25T21:52:02.508Z,26.00
2018-07-25T21:54:31.970Z,26.17
2018-07-25T21:57:01.362Z,25.43
2018-07-25T21:59:30.798Z,26.18
2018-07-25T22:02:00.188Z,25.52
2018-07-25T22:04:29.513Z,25.94
2018-07-25T22:06:58.830Z,26.15
2018-07-25T22:09:28.190Z,25.16
2018-07-25T22:11:57.686Z,26.24
2018-07-25T22:14:27.137Z,25.84
2018-07-25T22:16:56.357Z,26.01
2018-07-25T22:19:25.826Z,27.54
2018-07-25T22:21:55.190Z,28.15
2018-07-25T22:24:24.441Z,28.32
2018-07-25T22:26:53.711Z,29.16
2018-07-25T22:29:23.126Z,29.38
2018-07-25T22:31:58.658Z,29.24
2018-07-25T22:34:28.041Z,30.53
2018-07-25T22:36:57.438Z,30.76
2018-07-25T22:39:26.825Z,29.93
2018-07-25T22:41:55.949Z,30.42
2018-07-25T22:44:25.446Z,29.53
2018-07-25T22:46:54.814Z,29.80
2018-07-25T22:49:24.169Z,30.23
2018-07-25T22:51:53.555Z,32.52
2018-07-25T22:54:22.923Z,31.77
2018-07-25T22:56:52.211Z,31.02
2018-07-25T22:59:22.095Z,31.16
2018-07-25T23:01:51.447Z,31.00
2018-07-25T23:04:20.816Z,30.19
2018-07-25T23:06:50.055Z,30.02
2018-07-25T23:09:19.416Z,29.70
2018-07-25T23:11:48.931Z,28.77
2018-07-25T23:14:18.311Z,29.93
2018-07-25T23:16:47.937Z,29.95
2018-07-25T23:19:17.266Z,29.66
2018-07-25T23:21:46.838Z,30.56
2018-07-25T23:24:16.197Z,29.71
2018-07-25T23:26:45.481Z,30.77
2018-07-25T23:29:14.801Z,30.26
2018-07-25T23:31:44.241Z,29.91
2018-07-25T23:34:20.201Z,29.66
2018-07-25T23:36:49.501Z,30.14
2018-07-25T23:39:18.749Z,29.87
2018-07-25T23:41:48.130Z,29.38
2018-07-25T23:44:17.462Z,29.53
2018-07-25T23:46:46.842Z,29.73
2018-07-25T23:49:16.162Z,28.98
2018-07-25T23:51:45.701Z,29.55
2018-07-25T23:54:15.094Z,30.09
2018-07-25T23:56:44.554Z,29.80
2018-07-25T23:59:13.868Z,29.98
